Cornwall, Canada
Current Conditions -  °F | °C
As of 4:53 AM on Friday 24 Oct 2014 (Local Time) from KMSS Reporting Station
Overcast Overcast  
Wind Chill: 46°   Ceiling: 4100
Heat Index: 46°   Visibility: 10mi
Dew Point: 41°   Wind: 3mph
Humidity: 83%   Direction: 280°W
Pressure: 29.94"   Gusts: NA
Location:  45.03°N, 74.72°W
Report Text: KMSS 240853Z AUTO 28003KT 10SM OVC041 08/05 A2994 RMK AO2 SLP142 T00780050 55001
Loading
Personal Weather Stations






























Interactive Weather Map
Tropical Storm Tracking
New forecast layout! Learn more

10-Day Weather Forecast

Advertisements
Track Severe Weather on mobile